createdAt,value
2022-10-01T00:01:56.287Z,10.12
2022-10-01T00:04:23.935Z,10.10
2022-10-01T00:06:51.443Z,10.09
2022-10-01T00:09:19.133Z,10.09
2022-10-01T00:11:46.719Z,10.08
2022-10-01T00:14:14.338Z,10.07
2022-10-01T00:16:43.260Z,10.08
2022-10-01T00:19:14.712Z,10.08
2022-10-01T00:21:42.613Z,10.07
2022-10-01T00:24:13.254Z,10.09
2022-10-01T00:26:41.358Z,10.09
2022-10-01T00:29:13.210Z,10.08
2022-10-01T00:31:40.913Z,10.10
2022-10-01T00:34:13.498Z,10.10
2022-10-01T00:36:41.784Z,10.11
2022-10-01T00:39:11.442Z,10.14
2022-10-01T00:41:39.152Z,10.14
2022-10-01T00:44:35.371Z,10.14
2022-10-01T00:47:10.434Z,10.14
2022-10-01T00:49:41.007Z,10.15
2022-10-01T00:52:16.873Z,10.15
2022-10-01T00:54:47.597Z,10.14
2022-10-01T00:57:19.631Z,10.14
2022-10-01T00:59:48.045Z,10.14
2022-10-01T01:02:15.634Z,10.13
2022-10-01T01:04:44.764Z,10.13
2022-10-01T01:07:13.097Z,10.14
2022-10-01T01:09:45.436Z,10.15
2022-10-01T01:12:40.705Z,10.14
2022-10-01T01:15:18.989Z,10.15
2022-10-01T01:17:55.472Z,10.16
2022-10-01T01:21:00.857Z,10.18
2022-10-01T01:24:06.754Z,10.17
2022-10-01T01:26:43.051Z,10.17
2022-10-01T01:29:18.163Z,10.18
2022-10-01T01:31:47.094Z,10.19
2022-10-01T01:34:20.637Z,10.23
2022-10-01T01:36:54.151Z,10.23
2022-10-01T01:39:24.718Z,10.23
2022-10-01T01:41:56.370Z,10.25
2022-10-01T01:44:29.533Z,10.26
2022-10-01T01:46:59.441Z,10.28
2022-10-01T01:49:27.182Z,10.29
2022-10-01T01:52:00.342Z,10.31
2022-10-01T01:54:29.442Z,10.34
2022-10-01T01:56:58.146Z,10.36
2022-10-01T01:59:27.785Z,10.37
2022-10-01T02:01:55.454Z,10.41
2022-10-01T02:04:26.335Z,10.42
2022-10-01T02:07:26.438Z,10.44
2022-10-01T02:10:05.150Z,10.43
2022-10-01T02:12:42.707Z,10.44
2022-10-01T02:15:21.549Z,10.46
2022-10-01T02:18:00.298Z,10.47
2022-10-01T02:20:32.277Z,10.47
2022-10-01T02:23:05.315Z,10.47
2022-10-01T02:25:41.298Z,10.48
2022-10-01T02:28:13.160Z,10.49
2022-10-01T02:30:44.938Z,10.47
2022-10-01T02:33:16.827Z,10.47
2022-10-01T02:35:46.466Z,10.48
2022-10-01T02:38:16.726Z,10.50
2022-10-01T02:40:46.965Z,10.49
2022-10-01T02:43:18.425Z,10.50
2022-10-01T02:45:52.695Z,10.49
2022-10-01T02:48:20.316Z,10.47
2022-10-01T02:50:52.493Z,10.48
2022-10-01T02:53:23.556Z,10.48
2022-10-01T02:55:53.145Z,10.46
2022-10-01T02:58:20.336Z,10.46
2022-10-01T03:00:49.265Z,10.46
2022-10-01T03:03:16.806Z,10.47
2022-10-01T03:05:44.339Z,10.49
2022-10-01T03:08:11.891Z,10.47
2022-10-01T03:10:42.442Z,10.47
2022-10-01T03:13:13.544Z,10.47
2022-10-01T03:15:41.121Z,10.46
2022-10-01T03:18:10.049Z,10.47
2022-10-01T03:20:37.579Z,10.48
2022-10-01T03:23:05.110Z,10.46
2022-10-01T03:25:32.666Z,10.45
2022-10-01T03:28:00.832Z,10.47
2022-10-01T03:30:28.468Z,10.46
2022-10-01T03:32:56.338Z,10.50
2022-10-01T03:35:25.554Z,10.50
2022-10-01T03:37:53.070Z,10.51
2022-10-01T03:40:20.620Z,10.53
2022-10-01T03:42:48.494Z,10.51
2022-10-01T03:45:16.233Z,10.51
2022-10-01T03:47:43.756Z,10.50
2022-10-01T03:50:11.423Z,10.49
2022-10-01T03:52:42.131Z,10.48
2022-10-01T03:55:10.222Z,10.47
2022-10-01T03:57:37.737Z,10.46
2022-10-01T04:00:08.773Z,10.45
2022-10-01T04:02:36.382Z,10.44
2022-10-01T04:05:04.245Z,10.41
2022-10-01T04:07:31.858Z,10.37
2022-10-01T04:10:01.065Z,10.36
2022-10-01T04:12:28.974Z,10.33
2022-10-01T04:14:56.481Z,10.31
2022-10-01T04:17:24.043Z,10.29
2022-10-01T04:19:51.596Z,10.28
2022-10-01T04:22:19.138Z,10.26
2022-10-01T04:24:46.649Z,10.26
2022-10-01T04:27:15.531Z,10.27
2022-10-01T04:29:43.046Z,10.22
2022-10-01T04:32:10.575Z,10.25
2022-10-01T04:34:53.311Z,10.20
2022-10-01T04:37:21.302Z,10.21
2022-10-01T04:39:48.909Z,10.17
2022-10-01T04:42:17.781Z,10.16
2022-10-01T04:44:45.318Z,10.14
2022-10-01T04:47:12.866Z,10.10
2022-10-01T04:49:40.397Z,10.10
2022-10-01T04:52:07.918Z,10.09
2022-10-01T04:54:35.466Z,10.07
2022-10-01T04:57:02.965Z,10.06
2022-10-01T04:59:32.022Z,10.02
2022-10-01T05:01:59.707Z,10.00
2022-10-01T05:04:27.403Z,10.00
2022-10-01T05:06:54.997Z,10.00
2022-10-01T05:09:22.557Z,10.00
2022-10-01T05:11:51.953Z,10.01
2022-10-01T05:14:20.689Z,9.96
2022-10-01T05:16:49.547Z,10.00
2022-10-01T05:19:17.430Z,9.98
2022-10-01T05:21:45.806Z,9.96
2022-10-01T05:24:14.178Z,9.94
2022-10-01T05:26:41.694Z,9.95
2022-10-01T05:29:09.321Z,9.95
2022-10-01T05:31:37.636Z,9.96
2022-10-01T05:34:06.954Z,9.95
2022-10-01T05:36:34.526Z,9.94
2022-10-01T05:39:02.295Z,9.91
2022-10-01T05:41:29.809Z,9.92
2022-10-01T05:43:57.362Z,9.91
2022-10-01T05:46:24.901Z,9.91
2022-10-01T05:48:52.670Z,9.93
2022-10-01T05:51:21.639Z,9.92
2022-10-01T05:53:50.514Z,9.94
2022-10-01T05:56:18.236Z,9.96
2022-10-01T05:58:46.705Z,9.96
2022-10-01T06:01:14.848Z,9.96
2022-10-01T06:03:42.890Z,9.97
2022-10-01T06:06:10.452Z,9.98
2022-10-01T06:08:39.369Z,10.01
2022-10-01T06:11:07.222Z,10.02
2022-10-01T06:13:36.863Z,10.02
2022-10-01T06:16:04.481Z,10.02
2022-10-01T06:18:32.046Z,9.99
2022-10-01T06:21:00.590Z,9.99
2022-10-01T06:23:28.760Z,10.00
2022-10-01T06:26:00.250Z,9.96
2022-10-01T06:28:29.050Z,9.97
2022-10-01T06:30:56.629Z,10.01
2022-10-01T06:33:24.201Z,9.97
2022-10-01T06:35:52.889Z,10.01
2022-10-01T06:38:22.889Z,10.05
2022-10-01T06:40:54.453Z,10.06
2022-10-01T06:43:24.589Z,10.06
2022-10-01T06:45:52.647Z,10.05
2022-10-01T06:48:21.385Z,10.03
2022-10-01T06:50:50.858Z,10.04
2022-10-01T06:53:19.313Z,10.00
2022-10-01T06:55:47.386Z,9.98
2022-10-01T06:58:17.106Z,10.02
2022-10-01T07:00:46.871Z,10.02
2022-10-01T07:03:16.690Z,10.01
2022-10-01T07:05:44.299Z,10.05
2022-10-01T07:08:11.878Z,10.07
2022-10-01T07:10:39.888Z,10.10
2022-10-01T07:13:09.207Z,10.10
2022-10-01T07:15:37.182Z,10.08
2022-10-01T07:18:06.679Z,10.12
2022-10-01T07:20:39.352Z,10.13
2022-10-01T07:23:08.690Z,10.14
2022-10-01T07:25:36.314Z,10.15
2022-10-01T07:28:05.630Z,10.16
2022-10-01T07:30:33.221Z,10.16
2022-10-01T07:33:00.775Z,10.18
2022-10-01T07:35:29.672Z,10.17
2022-10-01T07:37:57.250Z,10.18
2022-10-01T07:40:24.908Z,10.21
2022-10-01T07:42:56.473Z,10.25
2022-10-01T07:45:24.330Z,10.27
2022-10-01T07:47:55.267Z,10.31
2022-10-01T07:50:23.394Z,10.30
2022-10-01T07:52:56.322Z,10.31
2022-10-01T07:55:26.903Z,10.31
2022-10-01T07:57:55.569Z,10.32
2022-10-01T08:00:25.284Z,10.36
2022-10-01T08:02:55.982Z,10.37
2022-10-01T08:05:25.981Z,10.36
2022-10-01T08:07:59.363Z,10.34
2022-10-01T08:10:26.982Z,10.36
2022-10-01T08:13:01.315Z,10.37
2022-10-01T08:15:29.240Z,10.38
2022-10-01T08:17:56.777Z,10.37
2022-10-01T08:20:24.308Z,10.41
2022-10-01T08:22:51.874Z,10.42
2022-10-01T08:25:20.757Z,10.45
2022-10-01T08:27:49.431Z,10.46
2022-10-01T08:30:17.046Z,10.48
2022-10-01T08:32:44.598Z,10.52
2022-10-01T08:35:12.423Z,10.54
2022-10-01T08:37:39.967Z,10.56
2022-10-01T08:40:09.125Z,10.59
2022-10-01T08:42:51.529Z,10.61
2022-10-01T08:45:25.873Z,10.62
2022-10-01T08:48:00.110Z,10.62
2022-10-01T08:50:37.026Z,10.62
2022-10-01T08:53:07.810Z,10.62
2022-10-01T08:55:37.596Z,10.64
2022-10-01T08:58:11.319Z,10.65
2022-10-01T09:00:42.992Z,10.67
2022-10-01T09:03:14.535Z,10.71
2022-10-01T09:05:53.994Z,10.75
2022-10-01T09:08:44.427Z,10.79
2022-10-01T09:11:21.972Z,10.83
2022-10-01T09:14:02.629Z,10.83
2022-10-01T09:16:38.529Z,10.86
2022-10-01T09:19:22.709Z,10.88
2022-10-01T09:21:57.093Z,10.89
2022-10-01T09:24:40.527Z,10.91
2022-10-01T09:27:14.546Z,10.99
2022-10-01T09:29:49.100Z,11.05
2022-10-01T09:32:21.497Z,11.09
2022-10-01T09:34:49.455Z,11.14
2022-10-01T09:37:27.211Z,11.19
2022-10-01T09:40:05.512Z,11.27
2022-10-01T09:42:33.119Z,11.30
2022-10-01T09:45:02.037Z,11.37
2022-10-01T09:47:29.602Z,11.46
2022-10-01T09:50:01.181Z,11.50
2022-10-01T09:52:34.439Z,11.55
2022-10-01T09:55:05.997Z,11.62
2022-10-01T09:57:37.146Z,11.72
2022-10-01T10:00:11.129Z,11.72
2022-10-01T10:02:48.175Z,11.82
2022-10-01T10:05:18.532Z,12.00
2022-10-01T10:07:47.790Z,12.26
2022-10-01T10:10:24.791Z,12.44
2022-10-01T10:12:57.794Z,12.69
2022-10-01T10:15:27.273Z,12.74
2022-10-01T10:17:55.726Z,12.89
2022-10-01T10:20:30.818Z,12.99
2022-10-01T10:23:09.030Z,13.26
2022-10-01T10:25:36.573Z,13.52
2022-10-01T10:28:05.058Z,13.86
2022-10-01T10:30:34.471Z,14.15
2022-10-01T10:33:08.034Z,14.39
2022-10-01T10:35:36.157Z,14.66
2022-10-01T10:38:03.955Z,14.77
2022-10-01T10:40:35.496Z,14.88
2022-10-01T10:43:03.182Z,14.98
2022-10-01T10:45:37.313Z,15.18
2022-10-01T10:48:07.831Z,15.44
2022-10-01T10:50:39.114Z,15.61
2022-10-01T10:53:21.997Z,15.67
2022-10-01T10:55:58.235Z,15.66
2022-10-01T10:58:27.675Z,15.75
2022-10-01T11:00:59.967Z,16.01
2022-10-01T11:03:30.442Z,16.44
2022-10-01T11:06:03.501Z,16.90
2022-10-01T11:08:31.564Z,17.01
2022-10-01T11:11:12.961Z,17.07
2022-10-01T11:13:51.686Z,17.35
2022-10-01T11:16:44.153Z,17.75
2022-10-01T11:19:25.877Z,17.79
2022-10-01T11:22:07.779Z,18.02
2022-10-01T11:25:01.568Z,18.20
2022-10-01T11:27:39.622Z,18.40
2022-10-01T11:30:11.766Z,18.10
2022-10-01T11:32:46.375Z,18.00
2022-10-01T11:35:29.759Z,17.67
2022-10-01T11:38:09.081Z,17.21
2022-10-01T11:40:42.414Z,17.34
2022-10-01T11:43:17.644Z,17.45
2022-10-01T11:45:49.537Z,17.77
2022-10-01T11:48:24.046Z,17.98
2022-10-01T11:50:54.258Z,17.72
2022-10-01T11:53:30.751Z,17.77
2022-10-01T11:56:20.781Z,18.04
2022-10-01T11:58:57.154Z,18.24
2022-10-01T12:01:36.910Z,18.14
2022-10-01T12:04:18.300Z,18.25
2022-10-01T12:06:55.333Z,17.97
2022-10-01T12:09:32.450Z,17.81
2022-10-01T12:12:05.887Z,17.90
2022-10-01T12:14:41.740Z,17.69
2022-10-01T12:17:16.150Z,17.64
2022-10-01T12:19:47.906Z,17.33
2022-10-01T12:22:24.354Z,17.00
2022-10-01T12:24:53.505Z,16.83
2022-10-01T12:27:34.702Z,16.64
2022-10-01T12:30:05.888Z,16.53
2022-10-01T12:32:41.644Z,16.47
2022-10-01T12:35:26.774Z,16.58
2022-10-01T12:38:09.958Z,16.66
2022-10-01T12:40:45.458Z,16.84
2022-10-01T12:43:35.677Z,17.00
2022-10-01T12:46:12.632Z,17.01
2022-10-01T12:48:48.935Z,16.89
2022-10-01T12:51:42.773Z,16.79
2022-10-01T12:54:27.123Z,16.71
2022-10-01T12:57:01.379Z,16.40
2022-10-01T12:59:41.540Z,16.24
2022-10-01T13:02:30.347Z,16.10
2022-10-01T13:05:20.014Z,16.05
2022-10-01T13:08:05.329Z,15.82
2022-10-01T13:10:48.678Z,15.72
2022-10-01T13:13:20.905Z,15.60
2022-10-01T13:15:53.411Z,15.52
2022-10-01T13:18:31.407Z,15.56
2022-10-01T13:21:12.640Z,15.54
2022-10-01T13:23:48.723Z,15.55
2022-10-01T13:26:20.986Z,15.61
2022-10-01T13:29:03.601Z,15.53
2022-10-01T13:31:39.096Z,15.61
2022-10-01T13:34:36.598Z,15.64
2022-10-01T13:37:12.350Z,15.69
2022-10-01T13:39:42.194Z,15.68
2022-10-01T13:42:20.342Z,15.76
2022-10-01T13:44:53.906Z,15.80
2022-10-01T13:47:23.653Z,15.98
2022-10-01T13:49:56.971Z,16.08
2022-10-01T13:52:25.173Z,16.11
2022-10-01T13:54:56.339Z,16.38
2022-10-01T13:57:30.060Z,16.42
2022-10-01T14:00:03.357Z,16.59
2022-10-01T14:02:35.890Z,16.69
2022-10-01T14:05:28.733Z,16.74
2022-10-01T14:08:11.777Z,16.59
2022-10-01T14:10:58.587Z,16.31
2022-10-01T14:13:46.789Z,16.41
2022-10-01T14:16:16.102Z,16.43
2022-10-01T14:18:47.962Z,16.60
2022-10-01T14:21:30.849Z,16.70
2022-10-01T14:24:03.174Z,16.69
2022-10-01T14:26:38.646Z,16.47
2022-10-01T14:29:18.742Z,16.28
2022-10-01T14:31:58.162Z,16.28
2022-10-01T14:34:43.237Z,16.27
2022-10-01T14:37:17.303Z,16.14
2022-10-01T14:39:45.375Z,15.98
2022-10-01T14:42:18.209Z,15.87
2022-10-01T14:44:47.022Z,15.86
2022-10-01T14:47:20.327Z,15.78
2022-10-01T14:49:48.688Z,15.76
2022-10-01T14:52:23.070Z,15.57
2022-10-01T14:54:58.006Z,15.50
2022-10-01T14:57:31.261Z,15.59
2022-10-01T15:00:01.296Z,15.68
2022-10-01T15:02:29.529Z,15.72
2022-10-01T15:04:58.358Z,15.79
2022-10-01T15:07:29.110Z,15.89
2022-10-01T15:10:07.071Z,15.98
2022-10-01T15:12:40.705Z,15.99
2022-10-01T15:15:20.447Z,15.93
2022-10-01T15:17:48.730Z,16.02
2022-10-01T15:20:17.687Z,16.01
2022-10-01T15:22:48.838Z,16.07
2022-10-01T15:25:23.342Z,15.95
2022-10-01T15:27:54.129Z,15.86
2022-10-01T15:30:21.986Z,15.66
2022-10-01T15:32:51.305Z,15.49
2022-10-01T15:35:21.536Z,15.34
2022-10-01T15:37:51.399Z,15.24
2022-10-01T15:40:25.581Z,15.20
2022-10-01T15:43:21.243Z,15.15
2022-10-01T15:46:16.286Z,15.10
2022-10-01T15:48:44.479Z,15.02
2022-10-01T15:51:29.806Z,14.89
2022-10-01T15:54:06.979Z,14.78
2022-10-01T15:56:35.183Z,14.61
2022-10-01T15:59:13.891Z,14.40
2022-10-01T16:01:41.884Z,14.29
2022-10-01T16:04:12.789Z,14.38
2022-10-01T16:06:43.015Z,14.55
2022-10-01T16:09:14.519Z,14.58
2022-10-01T16:11:55.009Z,14.49
2022-10-01T16:14:30.561Z,14.43
2022-10-01T16:17:32.133Z,14.30
2022-10-01T16:20:01.694Z,14.19
2022-10-01T16:22:31.661Z,14.12
2022-10-01T16:25:01.421Z,14.06
2022-10-01T16:27:31.251Z,14.00
2022-10-01T16:30:05.776Z,13.92
2022-10-01T16:32:34.043Z,13.84
2022-10-01T16:35:17.623Z,13.77
2022-10-01T16:37:47.441Z,13.71
2022-10-01T16:40:16.337Z,13.70
2022-10-01T16:42:45.073Z,13.65
2022-10-01T16:45:17.870Z,13.58
2022-10-01T16:47:46.008Z,13.52
2022-10-01T16:50:17.174Z,13.45
2022-10-01T16:52:44.887Z,13.40
2022-10-01T16:55:18.168Z,13.33
2022-10-01T16:57:45.760Z,13.23
2022-10-01T17:00:16.884Z,13.13
2022-10-01T17:02:44.682Z,13.03
2022-10-01T17:05:18.990Z,12.94
2022-10-01T17:07:47.041Z,12.87
2022-10-01T17:10:15.350Z,12.77
2022-10-01T17:12:43.694Z,12.70
2022-10-01T17:15:15.545Z,12.62
2022-10-01T17:17:44.781Z,12.57
2022-10-01T17:20:12.999Z,12.51
2022-10-01T17:22:42.741Z,12.46
2022-10-01T17:25:15.595Z,12.40
2022-10-01T17:27:43.512Z,12.35
2022-10-01T17:30:11.960Z,12.31
2022-10-01T17:32:42.774Z,12.26
2022-10-01T17:35:13.101Z,12.20
2022-10-01T17:37:41.333Z,12.17
2022-10-01T17:40:10.657Z,12.13
2022-10-01T17:42:38.352Z,12.09
2022-10-01T17:45:09.398Z,12.05
2022-10-01T17:47:37.250Z,12.03
2022-10-01T17:50:05.584Z,11.99
2022-10-01T17:52:34.510Z,11.97
2022-10-01T17:55:02.045Z,11.94
2022-10-01T17:57:29.571Z,11.92
2022-10-01T17:59:57.100Z,11.89
2022-10-01T18:02:40.895Z,11.86
2022-10-01T18:05:12.260Z,11.85
2022-10-01T18:07:41.589Z,11.81
2022-10-01T18:10:12.026Z,11.79
2022-10-01T18:12:39.657Z,11.78
2022-10-01T18:15:08.207Z,11.76
2022-10-01T18:17:42.924Z,11.75
2022-10-01T18:20:11.165Z,11.71
2022-10-01T18:22:38.823Z,11.68
2022-10-01T18:25:08.606Z,11.64
2022-10-01T18:27:36.149Z,11.61
2022-10-01T18:30:03.809Z,11.59
2022-10-01T18:32:37.494Z,11.58
2022-10-01T18:35:12.977Z,11.55
2022-10-01T18:37:46.483Z,11.51
2022-10-01T18:40:19.938Z,11.49
2022-10-01T18:42:52.263Z,11.47
2022-10-01T18:45:34.307Z,11.44
2022-10-01T18:48:19.174Z,11.42
2022-10-01T18:50:53.494Z,11.39
2022-10-01T18:53:38.225Z,11.37
2022-10-01T18:56:31.010Z,11.35
2022-10-01T18:59:24.037Z,11.32
2022-10-01T19:02:07.659Z,11.29
2022-10-01T19:05:00.353Z,11.27
2022-10-01T19:07:42.398Z,11.25
2022-10-01T19:10:17.120Z,11.21
2022-10-01T19:12:59.214Z,11.20
2022-10-01T19:15:37.706Z,11.18
2022-10-01T19:18:21.890Z,11.15
2022-10-01T19:21:01.957Z,11.15
2022-10-01T19:23:51.434Z,11.13
2022-10-01T19:26:26.526Z,11.09
2022-10-01T19:29:11.541Z,11.05
2022-10-01T19:31:46.088Z,11.00
2022-10-01T19:34:19.554Z,10.93
2022-10-01T19:36:54.141Z,10.89
2022-10-01T19:39:25.095Z,10.84
2022-10-01T19:41:56.453Z,10.80
2022-10-01T19:44:32.650Z,10.75
2022-10-01T19:47:15.504Z,10.72
2022-10-01T19:49:45.810Z,10.70
2022-10-01T19:52:18.083Z,10.67
2022-10-01T19:54:49.715Z,10.64
2022-10-01T19:57:23.331Z,10.61
2022-10-01T19:59:55.162Z,10.59
2022-10-01T20:02:33.621Z,10.54
2022-10-01T20:05:05.712Z,10.52
2022-10-01T20:07:42.223Z,10.48
2022-10-01T20:10:19.655Z,10.45
2022-10-01T20:12:57.027Z,10.45
2022-10-01T20:15:39.161Z,10.42
2022-10-01T20:18:14.847Z,10.41
2022-10-01T20:20:48.823Z,10.40
2022-10-01T20:23:33.282Z,10.39
2022-10-01T20:26:10.832Z,10.38
2022-10-01T20:28:52.709Z,10.40
2022-10-01T20:31:28.241Z,10.43
2022-10-01T20:34:03.839Z,10.48
2022-10-01T20:36:38.479Z,10.55
2022-10-01T20:39:13.141Z,10.61
2022-10-01T20:41:45.046Z,10.63
2022-10-01T20:44:18.230Z,10.65
2022-10-01T20:46:49.456Z,10.70
2022-10-01T20:49:27.183Z,10.76
2022-10-01T20:51:58.368Z,10.85
2022-10-01T20:54:33.178Z,10.90
2022-10-01T20:57:06.703Z,10.93
2022-10-01T20:59:40.711Z,10.96
2022-10-01T21:02:25.388Z,10.99
2022-10-01T21:05:01.328Z,11.00
2022-10-01T21:07:36.423Z,11.05
2022-10-01T21:10:11.537Z,11.07
2022-10-01T21:12:43.258Z,11.08
2022-10-01T21:15:14.518Z,11.03
2022-10-01T21:17:53.449Z,11.01
2022-10-01T21:20:38.882Z,10.97
2022-10-01T21:23:18.141Z,10.92
2022-10-01T21:25:59.077Z,10.86
2022-10-01T21:28:52.674Z,10.82
2022-10-01T21:31:33.179Z,10.78
2022-10-01T21:34:04.336Z,10.72
2022-10-01T21:36:38.292Z,10.67
2022-10-01T21:39:12.079Z,10.64
2022-10-01T21:41:53.526Z,10.60
2022-10-01T21:44:42.701Z,10.57
2022-10-01T21:47:16.272Z,10.57
2022-10-01T21:49:58.930Z,10.56
2022-10-01T21:52:38.659Z,10.53
2022-10-01T21:55:32.261Z,10.50
2022-10-01T21:58:13.653Z,10.48
2022-10-01T22:00:41.698Z,10.46
2022-10-01T22:03:20.054Z,10.43
2022-10-01T22:05:57.466Z,10.41
2022-10-01T22:08:40.321Z,10.38
2022-10-01T22:11:15.785Z,10.36
2022-10-01T22:13:51.356Z,10.32
2022-10-01T22:16:21.959Z,10.30
2022-10-01T22:18:52.866Z,10.26
2022-10-01T22:21:26.659Z,10.25
2022-10-01T22:24:02.450Z,10.25
2022-10-01T22:26:32.898Z,10.29
2022-10-01T22:29:04.720Z,10.35
2022-10-01T22:31:37.463Z,10.41
2022-10-01T22:34:10.148Z,10.47
2022-10-01T22:36:46.255Z,10.54
2022-10-01T22:39:20.161Z,10.62
2022-10-01T22:41:51.901Z,10.68
2022-10-01T22:44:21.777Z,10.76
2022-10-01T22:47:21.761Z,10.83
2022-10-01T22:50:18.542Z,10.87
2022-10-01T22:53:00.541Z,10.89
2022-10-01T22:55:37.844Z,10.87
2022-10-01T22:58:31.055Z,10.85
2022-10-01T23:01:08.378Z,10.84
2022-10-01T23:03:50.423Z,10.81
2022-10-01T23:06:29.327Z,10.80
2022-10-01T23:09:05.666Z,10.77
2022-10-01T23:11:43.765Z,10.73
2022-10-01T23:14:22.981Z,10.70
2022-10-01T23:16:56.798Z,10.62
2022-10-01T23:19:39.946Z,10.54
2022-10-01T23:22:14.957Z,10.48
2022-10-01T23:24:56.302Z,10.41
2022-10-01T23:27:37.047Z,10.34
2022-10-01T23:30:14.269Z,10.29
2022-10-01T23:33:20.555Z,10.23
2022-10-01T23:35:53.403Z,10.17
2022-10-01T23:38:45.577Z,10.12
2022-10-01T23:41:22.402Z,10.08
2022-10-01T23:43:50.929Z,10.03
2022-10-01T23:46:22.582Z,9.99
2022-10-01T23:48:56.678Z,9.95
2022-10-01T23:51:27.650Z,9.92
2022-10-01T23:54:01.345Z,9.88
2022-10-01T23:56:52.990Z,9.85
2022-10-01T23:59:28.384Z,9.81
